Terminal Aerodrome Forecast
Issued by NWS

Home | Current Version | Previous Version | Text Only | Print | Product List | Glossary On
Versions: 1 2 3 4 5 6 7 8 9 10 11 12 13
787
FTUS42 TJSJ 242331
TAFJSJ
TAF
TJSJ 242331Z 2500/2524 16006KT P6SM FEW060
     FM251300 15010KT P6SM FEW030 FEW060
     FM251600 08010KT P6SM FEW035
     FM252230 16006KT P6SM FEW030 FEW060=

USA.gov is the U.S. government's official web portal to all federal, state and local government web resources and services.